createdAt,value
2017-12-23T00:00:01.364Z,12.40
2017-12-23T00:02:30.334Z,12.45
2017-12-23T00:05:00.376Z,14.00
2017-12-23T00:07:29.650Z,12.35
2017-12-23T00:09:59.677Z,10.10
2017-12-23T00:12:28.949Z,9.65
2017-12-23T00:14:58.257Z,13.07
2017-12-23T00:17:27.508Z,10.77
2017-12-23T00:19:56.759Z,9.68
2017-12-23T00:22:26.042Z,12.27
2017-12-23T00:24:56.064Z,11.63
2017-12-23T00:27:26.113Z,11.35
2017-12-23T00:29:55.391Z,12.98
2017-12-23T00:32:24.659Z,10.57
2017-12-23T00:34:54.088Z,8.88
2017-12-23T00:37:24.118Z,9.43
2017-12-23T00:39:53.403Z,8.82
2017-12-23T00:42:23.458Z,9.55
2017-12-23T00:44:52.726Z,10.25
2017-12-23T00:47:21.981Z,10.10
2017-12-23T00:49:51.262Z,7.70
2017-12-23T00:52:20.528Z,12.18
2017-12-23T00:54:49.772Z,8.55
2017-12-23T00:57:19.040Z,6.95
2017-12-23T00:59:49.053Z,9.60
2017-12-23T01:02:19.085Z,10.75
2017-12-23T01:04:48.386Z,7.82
2017-12-23T01:07:17.643Z,9.23
2017-12-23T01:09:46.914Z,7.32
2017-12-23T01:12:16.190Z,7.90
2017-12-23T01:14:45.419Z,8.23
2017-12-23T01:17:14.710Z,9.52
2017-12-23T01:19:43.980Z,8.25
2017-12-23T01:22:13.250Z,6.97
2017-12-23T01:24:42.563Z,7.60
2017-12-23T01:27:11.846Z,7.78
2017-12-23T01:29:41.118Z,7.60
2017-12-23T01:32:10.360Z,7.30
2017-12-23T01:34:39.618Z,8.85
2017-12-23T01:37:08.878Z,10.63
2017-12-23T01:39:38.920Z,9.88
2017-12-23T01:42:08.165Z,6.95
2017-12-23T01:44:37.404Z,8.32
2017-12-23T01:47:06.674Z,7.28
2017-12-23T01:49:36.737Z,7.57
2017-12-23T01:52:06.005Z,8.13
2017-12-23T01:54:36.044Z,7.30
2017-12-23T01:57:05.319Z,7.05
2017-12-23T01:59:34.579Z,6.53
2017-12-23T02:02:03.861Z,8.77
2017-12-23T02:04:33.107Z,7.93
2017-12-23T02:07:03.157Z,8.65
2017-12-23T02:09:32.438Z,8.52
2017-12-23T02:12:02.502Z,7.53
2017-12-23T02:14:31.757Z,8.35
2017-12-23T02:17:01.066Z,7.85
2017-12-23T02:19:31.106Z,9.43
2017-12-23T02:22:00.368Z,8.98
2017-12-23T02:24:30.423Z,8.90
2017-12-23T02:26:59.703Z,8.05
2017-12-23T02:29:29.761Z,11.70
2017-12-23T02:31:59.038Z,9.57
2017-12-23T02:34:28.303Z,10.10
2017-12-23T02:36:57.577Z,9.93
2017-12-23T02:39:26.841Z,10.05
2017-12-23T02:41:56.114Z,7.70
2017-12-23T02:44:26.156Z,10.90
2017-12-23T02:46:55.429Z,11.10
2017-12-23T02:49:26.620Z,9.10
2017-12-23T02:51:56.630Z,10.15
2017-12-23T02:54:25.914Z,9.10
2017-12-23T02:56:55.185Z,9.27
2017-12-23T02:59:25.223Z,7.87
2017-12-23T03:01:54.496Z,7.75
2017-12-23T03:04:23.754Z,8.23
2017-12-23T03:06:53.013Z,7.30
2017-12-23T03:09:23.038Z,6.95
2017-12-23T03:11:52.312Z,8.38
2017-12-23T03:14:21.551Z,7.18
2017-12-23T03:16:50.802Z,6.82
2017-12-23T03:19:20.077Z,7.85
2017-12-23T03:21:49.358Z,7.80
2017-12-23T03:24:18.631Z,7.75
2017-12-23T03:26:48.651Z,7.57
2017-12-23T03:29:17.912Z,9.07
2017-12-23T03:31:47.148Z,9.25
2017-12-23T03:34:16.408Z,10.77
2017-12-23T03:36:45.686Z,8.98
2017-12-23T03:39:14.940Z,9.05
2017-12-23T03:41:44.970Z,8.85
2017-12-23T03:44:14.228Z,8.40
2017-12-23T03:46:43.490Z,10.45
2017-12-23T03:49:12.767Z,11.18
2017-12-23T03:51:42.034Z,8.68
2017-12-23T03:54:11.277Z,9.93
2017-12-23T03:56:40.533Z,10.00
2017-12-23T03:59:10.553Z,11.70
2017-12-23T04:01:39.821Z,10.73
2017-12-23T04:04:09.083Z,11.82
2017-12-23T04:06:38.351Z,11.55
2017-12-23T04:09:07.594Z,14.65
2017-12-23T04:11:36.842Z,11.23
2017-12-23T04:14:07.275Z,13.90
2017-12-23T04:16:37.323Z,13.10
2017-12-23T04:19:06.617Z,13.20
2017-12-23T04:21:36.633Z,9.98
2017-12-23T04:24:05.884Z,8.98
2017-12-23T04:26:35.144Z,10.82
2017-12-23T04:29:04.395Z,11.05
2017-12-23T04:31:34.442Z,12.05
2017-12-23T04:34:03.686Z,9.98
2017-12-23T04:36:32.950Z,12.68
2017-12-23T04:39:02.218Z,11.32
2017-12-23T04:41:32.241Z,10.95
2017-12-23T04:44:02.285Z,10.48
2017-12-23T04:46:31.552Z,10.63
2017-12-23T04:49:01.578Z,26.02
2017-12-23T04:51:30.862Z,19.30
2017-12-23T04:54:00.115Z,13.07
2017-12-23T04:56:29.380Z,16.77
2017-12-23T04:58:58.619Z,11.65
2017-12-23T05:01:27.890Z,13.18
2017-12-23T05:03:57.166Z,13.75
2017-12-23T05:06:27.189Z,15.40
2017-12-23T05:08:56.450Z,12.57
2017-12-23T05:11:25.716Z,13.57
2017-12-23T05:13:54.976Z,14.25
2017-12-23T05:16:25.014Z,15.65
2017-12-23T05:18:54.283Z,15.85
2017-12-23T05:21:24.318Z,14.77
2017-12-23T05:23:54.491Z,17.27
2017-12-23T05:26:23.769Z,15.02
2017-12-23T05:28:53.027Z,17.20
2017-12-23T05:31:23.062Z,18.10
2017-12-23T05:33:52.352Z,16.42
2017-12-23T05:36:21.621Z,13.45
2017-12-23T05:38:50.863Z,17.17
2017-12-23T05:41:20.171Z,19.67
2017-12-23T05:43:49.395Z,14.65
2017-12-23T05:46:18.653Z,18.15
2017-12-23T05:48:47.925Z,15.23
2017-12-23T05:51:17.196Z,17.00
2017-12-23T05:53:46.459Z,30.65
2017-12-23T05:56:15.718Z,14.30
2017-12-23T05:58:49.378Z,15.90
2017-12-23T06:01:18.637Z,18.23
2017-12-23T06:03:48.661Z,16.80
2017-12-23T06:06:17.919Z,17.48
2017-12-23T06:08:47.179Z,15.38
2017-12-23T06:11:16.475Z,17.40
2017-12-23T06:13:45.721Z,17.27
2017-12-23T06:16:14.996Z,17.80
2017-12-23T06:18:44.268Z,14.48
2017-12-23T06:21:13.535Z,14.68
2017-12-23T06:23:42.787Z,14.90
2017-12-23T06:26:12.061Z,11.77
2017-12-23T06:28:41.314Z,14.63
2017-12-23T06:31:10.736Z,12.60
2017-12-23T06:33:40.031Z,14.87
2017-12-23T06:36:09.288Z,13.82
2017-12-23T06:38:38.670Z,13.10
2017-12-23T06:41:07.918Z,11.15
2017-12-23T06:43:37.177Z,14.40
2017-12-23T06:46:06.455Z,13.85
2017-12-23T06:48:36.484Z,14.82
2017-12-23T06:51:05.749Z,14.32
2017-12-23T06:53:35.004Z,13.27
2017-12-23T06:56:04.299Z,13.70
2017-12-23T06:58:33.574Z,15.27
2017-12-23T07:01:02.848Z,15.10
2017-12-23T07:03:32.120Z,14.77
2017-12-23T07:06:01.484Z,15.30
2017-12-23T07:08:30.764Z,17.20
2017-12-23T07:11:00.831Z,11.90
2017-12-23T07:13:33.772Z,14.80
2017-12-23T07:16:06.860Z,13.48
2017-12-23T07:18:36.885Z,13.55
2017-12-23T07:21:07.147Z,14.90
2017-12-23T07:23:36.420Z,12.65
2017-12-23T07:26:05.701Z,15.35
2017-12-23T07:28:36.594Z,13.93
2017-12-23T07:31:05.879Z,15.13
2017-12-23T07:33:35.164Z,14.02
2017-12-23T07:36:04.436Z,12.45
2017-12-23T07:38:34.473Z,12.20
2017-12-23T07:41:03.746Z,13.98
2017-12-23T07:43:33.798Z,15.80
2017-12-23T07:46:03.086Z,14.02
2017-12-23T07:48:32.355Z,15.30
2017-12-23T07:51:02.399Z,13.75
2017-12-23T07:53:31.696Z,13.05
2017-12-23T07:56:00.937Z,15.35
2017-12-23T07:58:30.214Z,14.57
2017-12-23T08:00:59.495Z,14.18
2017-12-23T08:03:28.772Z,13.07
2017-12-23T08:05:58.068Z,14.23
2017-12-23T08:08:27.339Z,11.55
2017-12-23T08:10:56.662Z,13.62
2017-12-23T08:13:25.916Z,12.95
2017-12-23T08:15:55.205Z,11.90
2017-12-23T08:18:24.492Z,12.13
2017-12-23T08:20:54.528Z,12.93
2017-12-23T08:23:23.803Z,11.00
2017-12-23T08:25:53.838Z,12.52
2017-12-23T08:28:23.097Z,12.32
2017-12-23T08:30:52.357Z,16.02
2017-12-23T08:33:21.655Z,13.98
2017-12-23T08:35:50.927Z,16.42
2017-12-23T08:38:20.205Z,10.73
2017-12-23T08:40:49.483Z,11.80
2017-12-23T08:43:18.804Z,12.15
2017-12-23T08:45:48.095Z,12.00
2017-12-23T08:48:17.346Z,11.30
2017-12-23T08:50:46.631Z,13.10
2017-12-23T08:53:15.902Z,11.95
2017-12-23T08:55:45.923Z,13.40
2017-12-23T08:58:15.190Z,10.50
2017-12-23T09:00:44.460Z,12.30
2017-12-23T09:03:14.452Z,12.02
2017-12-23T09:05:43.727Z,12.05
2017-12-23T09:08:12.989Z,12.75
2017-12-23T09:10:42.268Z,17.60
2017-12-23T09:13:11.533Z,12.98
2017-12-23T09:15:40.787Z,13.20
2017-12-23T09:18:10.207Z,13.75
2017-12-23T09:20:39.487Z,14.15
2017-12-23T09:23:09.700Z,13.57
2017-12-23T09:25:38.930Z,12.68
2017-12-23T09:28:08.210Z,11.55
2017-12-23T09:30:37.498Z,15.20
2017-12-23T09:33:06.767Z,14.27
2017-12-23T09:35:36.035Z,13.65
2017-12-23T09:38:05.295Z,13.98
2017-12-23T09:40:34.568Z,14.23
2017-12-23T09:43:03.837Z,14.85
2017-12-23T09:45:33.119Z,14.07
2017-12-23T09:48:02.367Z,15.40
2017-12-23T09:50:32.422Z,15.43
2017-12-23T09:53:01.696Z,12.40
2017-12-23T09:55:30.964Z,13.70
2017-12-23T09:58:00.264Z,15.40
2017-12-23T10:00:29.530Z,13.93
2017-12-23T10:02:58.812Z,12.02
2017-12-23T10:05:28.103Z,14.32
2017-12-23T10:07:57.398Z,14.90
2017-12-23T10:10:26.686Z,12.15
2017-12-23T10:12:55.954Z,17.20
2017-12-23T10:15:25.259Z,11.25
2017-12-23T10:17:54.526Z,11.65
2017-12-23T10:20:23.804Z,11.75
2017-12-23T10:22:53.085Z,10.60
2017-12-23T10:25:22.502Z,12.35
2017-12-23T10:27:51.770Z,10.27
2017-12-23T10:30:21.963Z,10.13
2017-12-23T10:32:51.248Z,7.45
2017-12-23T10:35:21.147Z,9.80
2017-12-23T10:37:50.414Z,6.60
2017-12-23T10:40:19.696Z,6.30
2017-12-23T10:42:48.950Z,8.93
2017-12-23T10:45:18.206Z,6.57
2017-12-23T10:47:47.498Z,8.45
2017-12-23T10:50:16.744Z,5.50
2017-12-23T10:52:46.492Z,6.75
2017-12-23T10:55:15.761Z,7.70
2017-12-23T10:57:45.076Z,7.97
2017-12-23T11:00:14.487Z,7.35
2017-12-23T11:02:43.728Z,7.40
2017-12-23T11:05:13.002Z,7.43
2017-12-23T11:07:42.467Z,8.30
2017-12-23T11:10:11.754Z,9.52
2017-12-23T11:12:41.013Z,8.27
2017-12-23T11:15:10.269Z,7.50
2017-12-23T11:17:39.548Z,6.20
2017-12-23T11:20:08.811Z,8.65
2017-12-23T11:22:38.341Z,6.22
2017-12-23T11:25:07.612Z,7.72
2017-12-23T11:27:36.859Z,7.18
2017-12-23T11:30:06.125Z,7.30
2017-12-23T11:32:35.383Z,7.97
2017-12-23T11:35:04.773Z,8.20
2017-12-23T11:37:34.763Z,6.87
2017-12-23T11:40:04.781Z,6.07
2017-12-23T11:42:34.822Z,8.52
2017-12-23T11:45:04.183Z,6.68
2017-12-23T11:47:34.220Z,9.18
2017-12-23T11:50:03.471Z,12.20
2017-12-23T11:52:32.751Z,6.75
2017-12-23T11:55:02.071Z,14.43
2017-12-23T11:57:31.337Z,8.70
2017-12-23T12:00:00.625Z,9.75
2017-12-23T12:02:29.929Z,9.35
2017-12-23T12:04:59.189Z,8.98
2017-12-23T12:07:28.457Z,8.75
2017-12-23T12:09:57.728Z,9.85
2017-12-23T12:12:27.874Z,8.20
2017-12-23T12:14:57.146Z,7.62
2017-12-23T12:17:26.418Z,7.60
2017-12-23T12:19:55.702Z,7.05
2017-12-23T12:22:28.402Z,8.48
2017-12-23T12:24:57.677Z,7.53
2017-12-23T12:27:27.648Z,7.50
2017-12-23T12:29:57.683Z,7.80
2017-12-23T12:32:26.940Z,7.28
2017-12-23T12:34:56.988Z,8.70
2017-12-23T12:37:26.253Z,8.10
2017-12-23T12:39:56.290Z,7.37
2017-12-23T12:42:25.573Z,5.28
2017-12-23T12:44:55.609Z,6.68
2017-12-23T12:47:24.871Z,6.72
2017-12-23T12:49:54.189Z,5.75
2017-12-23T12:52:23.435Z,6.45
2017-12-23T12:54:52.709Z,8.70
2017-12-23T12:57:21.965Z,7.32
2017-12-23T12:59:51.252Z,9.60
2017-12-23T13:02:20.512Z,7.03
2017-12-23T13:04:49.842Z,7.40
2017-12-23T13:07:19.067Z,6.93
2017-12-23T13:09:48.349Z,6.03
2017-12-23T13:12:17.619Z,9.20
2017-12-23T13:14:46.898Z,8.13
2017-12-23T13:17:16.187Z,7.60
2017-12-23T13:19:46.207Z,10.48
2017-12-23T13:22:16.269Z,6.90
2017-12-23T13:24:45.525Z,9.05
2017-12-23T13:27:14.794Z,5.50
2017-12-23T13:29:44.095Z,6.50
2017-12-23T13:32:13.346Z,6.68
2017-12-23T13:34:42.635Z,6.07
2017-12-23T13:37:12.657Z,11.82
2017-12-23T13:39:41.906Z,7.57
2017-12-23T13:42:11.153Z,7.47
2017-12-23T13:44:40.413Z,6.93
2017-12-23T13:47:11.395Z,8.25
2017-12-23T13:49:40.658Z,9.63
2017-12-23T13:52:09.934Z,10.75
2017-12-23T13:54:39.195Z,7.80
2017-12-23T13:57:08.667Z,8.27
2017-12-23T13:59:37.934Z,6.18
2017-12-23T14:02:07.174Z,6.28
2017-12-23T14:04:37.215Z,4.80
2017-12-23T14:07:06.500Z,6.72
2017-12-23T14:09:35.734Z,7.10
2017-12-23T14:12:05.002Z,4.95
2017-12-23T14:14:34.267Z,4.90
2017-12-23T14:17:03.522Z,3.92
2017-12-23T14:19:33.551Z,8.35
2017-12-23T14:22:02.804Z,5.10
2017-12-23T14:24:32.860Z,5.40
2017-12-23T14:27:02.121Z,6.15
2017-12-23T14:29:31.394Z,5.20
2017-12-23T14:32:00.639Z,6.95
2017-12-23T14:34:29.902Z,6.65
2017-12-23T14:36:59.164Z,6.47
2017-12-23T14:39:28.443Z,4.90
2017-12-23T14:41:57.715Z,5.47
2017-12-23T14:44:28.899Z,5.20
2017-12-23T14:46:58.133Z,9.85
2017-12-23T14:49:27.456Z,11.98
2017-12-23T14:51:57.481Z,6.30
2017-12-23T14:54:27.539Z,4.25
2017-12-23T14:56:56.807Z,6.68
2017-12-23T14:59:26.835Z,5.47
2017-12-23T15:01:56.097Z,4.80
2017-12-23T15:04:26.154Z,6.25
2017-12-23T15:06:55.448Z,5.45
2017-12-23T15:09:24.732Z,6.35
2017-12-23T15:11:54.769Z,5.28
2017-12-23T15:14:24.038Z,7.12
2017-12-23T15:16:53.319Z,4.82
2017-12-23T15:19:22.574Z,5.75
2017-12-23T15:21:51.850Z,3.95
2017-12-23T15:24:21.919Z,4.70
2017-12-23T15:26:51.190Z,4.28
2017-12-23T15:29:20.474Z,6.80
2017-12-23T15:31:49.768Z,4.60
2017-12-23T15:34:19.035Z,6.35
2017-12-23T15:36:48.285Z,4.75
2017-12-23T15:39:17.587Z,5.00
2017-12-23T15:41:46.866Z,5.62
2017-12-23T15:44:16.143Z,5.90
2017-12-23T15:46:45.429Z,6.15
2017-12-23T15:49:14.685Z,4.30
2017-12-23T15:51:43.950Z,4.07
2017-12-23T15:54:13.217Z,4.35
2017-12-23T15:56:42.502Z,4.18
2017-12-23T15:59:11.770Z,5.78
2017-12-23T16:01:41.037Z,6.68
2017-12-23T16:04:10.380Z,4.68
2017-12-23T16:06:39.731Z,5.25
2017-12-23T16:09:08.980Z,3.42
2017-12-23T16:11:38.261Z,5.65
2017-12-23T16:14:07.525Z,8.55
2017-12-23T16:16:36.801Z,6.20
2017-12-23T16:19:06.082Z,4.93
2017-12-23T16:21:35.375Z,5.87
2017-12-23T16:24:04.642Z,5.32
2017-12-23T16:26:33.917Z,5.28
2017-12-23T16:29:03.173Z,6.95
2017-12-23T16:31:32.469Z,7.15
2017-12-23T16:34:01.717Z,6.90
2017-12-23T16:36:31.030Z,5.82
2017-12-23T16:39:00.264Z,6.60
2017-12-23T16:41:29.545Z,6.12
2017-12-23T16:43:59.577Z,7.40
2017-12-23T16:46:28.836Z,5.62
2017-12-23T16:48:58.119Z,6.43
2017-12-23T16:51:27.375Z,8.57
2017-12-23T16:53:56.686Z,5.25
2017-12-23T16:56:25.951Z,5.05
2017-12-23T16:58:55.220Z,6.75
2017-12-23T17:01:24.474Z,5.22
2017-12-23T17:03:53.759Z,5.40
2017-12-23T17:06:23.062Z,6.15
2017-12-23T17:08:52.303Z,8.50
2017-12-23T17:11:21.590Z,7.43
2017-12-23T17:13:50.863Z,10.10
2017-12-23T17:16:20.902Z,9.23
2017-12-23T17:18:50.177Z,7.40
2017-12-23T17:21:20.212Z,8.40
2017-12-23T17:23:49.503Z,5.15
2017-12-23T17:26:19.538Z,5.28
2017-12-23T17:29:06.303Z,6.00
2017-12-23T17:31:36.231Z,5.25
2017-12-23T17:34:06.282Z,7.30
2017-12-23T17:36:35.550Z,5.22
2017-12-23T17:39:04.846Z,7.82
2017-12-23T17:41:34.136Z,6.18
2017-12-23T17:44:03.418Z,6.70
2017-12-23T17:46:32.670Z,6.20
2017-12-23T17:49:01.971Z,7.80
2017-12-23T17:51:31.245Z,7.82
2017-12-23T17:54:01.296Z,7.07
2017-12-23T17:56:30.575Z,9.27
2017-12-23T17:59:00.630Z,6.32
2017-12-23T18:01:29.905Z,16.52
2017-12-23T18:03:59.192Z,7.70
2017-12-23T18:06:29.213Z,6.37
2017-12-23T18:08:58.496Z,7.85
2017-12-23T18:11:27.752Z,8.02
2017-12-23T18:13:57.046Z,6.95
2017-12-23T18:16:26.327Z,8.45
2017-12-23T18:18:55.588Z,6.12
2017-12-23T18:21:24.871Z,5.65
2017-12-23T18:23:54.174Z,6.00
2017-12-23T18:26:23.441Z,5.93
2017-12-23T18:28:52.701Z,5.53
2017-12-23T18:31:22.740Z,7.65
2017-12-23T18:33:51.988Z,6.00
2017-12-23T18:36:21.263Z,8.65
2017-12-23T18:38:50.531Z,7.43
2017-12-23T18:41:19.815Z,10.45
2017-12-23T18:43:49.870Z,8.35
2017-12-23T18:46:19.142Z,7.55
2017-12-23T18:48:49.153Z,7.90
2017-12-23T18:51:19.208Z,8.68
2017-12-23T18:53:48.452Z,6.10
2017-12-23T18:56:18.103Z,8.27
2017-12-23T18:58:47.373Z,8.65
2017-12-23T19:01:17.402Z,8.43
2017-12-23T19:03:47.427Z,7.70
2017-12-23T19:06:16.684Z,6.35
2017-12-23T19:08:45.937Z,13.35
2017-12-23T19:11:15.184Z,10.70
2017-12-23T19:13:44.441Z,11.15
2017-12-23T19:16:31.327Z,11.25
2017-12-23T19:19:01.376Z,8.48
2017-12-23T19:21:30.633Z,11.75
2017-12-23T19:23:59.888Z,10.02
2017-12-23T19:26:29.144Z,8.35
2017-12-23T19:28:59.174Z,6.43
2017-12-23T19:31:28.434Z,6.10
2017-12-23T19:33:57.686Z,6.30
2017-12-23T19:36:26.967Z,5.85
2017-12-23T19:38:56.986Z,5.47
2017-12-23T19:41:26.256Z,5.03
2017-12-23T19:43:55.519Z,6.03
2017-12-23T19:46:24.784Z,4.10
2017-12-23T19:48:54.127Z,4.60
2017-12-23T19:51:23.394Z,6.82
2017-12-23T19:53:52.640Z,5.15
2017-12-23T19:56:21.903Z,3.67
2017-12-23T19:58:51.158Z,3.53
2017-12-23T20:01:20.424Z,3.03
2017-12-23T20:03:49.724Z,2.55
2017-12-23T20:06:18.981Z,4.53
2017-12-23T20:08:48.239Z,4.25
2017-12-23T20:11:17.480Z,3.30
2017-12-23T20:13:46.747Z,3.22
2017-12-23T20:16:15.993Z,3.10
2017-12-23T20:18:45.231Z,5.28
2017-12-23T20:21:14.495Z,2.80
2017-12-23T20:23:43.810Z,3.65
2017-12-23T20:26:13.043Z,2.53
2017-12-23T20:28:42.314Z,4.20
2017-12-23T20:31:11.575Z,4.05
2017-12-23T20:33:41.602Z,3.50
2017-12-23T20:36:10.859Z,4.10
2017-12-23T20:38:40.104Z,3.58
2017-12-23T20:41:09.354Z,4.10
2017-12-23T20:43:38.647Z,4.40
2017-12-23T20:46:07.888Z,4.22
2017-12-23T20:48:37.144Z,3.40
2017-12-23T20:51:06.409Z,4.25
2017-12-23T20:53:35.674Z,6.00
2017-12-23T20:56:04.951Z,6.60
2017-12-23T20:58:34.222Z,6.60
2017-12-23T21:01:03.458Z,5.78
2017-12-23T21:03:32.711Z,8.10
2017-12-23T21:06:01.975Z,5.60
2017-12-23T21:08:31.986Z,5.25
2017-12-23T21:11:01.224Z,7.78
2017-12-23T21:13:30.504Z,8.38
2017-12-23T21:15:59.732Z,6.62
2017-12-23T21:18:29.087Z,8.90
2017-12-23T21:20:58.338Z,7.43
2017-12-23T21:23:27.595Z,8.43
2017-12-23T21:25:56.839Z,8.98
2017-12-23T21:28:26.119Z,7.65
2017-12-23T21:30:55.376Z,6.00
2017-12-23T21:33:24.627Z,6.18
2017-12-23T21:35:53.907Z,6.55
2017-12-23T21:38:23.175Z,6.45
2017-12-23T21:40:53.210Z,6.30
2017-12-23T21:43:22.487Z,6.97
2017-12-23T21:45:51.742Z,7.15
2017-12-23T21:48:21.009Z,7.03
2017-12-23T21:50:50.266Z,7.40
2017-12-23T21:53:19.528Z,8.75
2017-12-23T21:55:48.787Z,6.93
2017-12-23T21:58:18.820Z,8.02
2017-12-23T22:00:48.084Z,6.53
2017-12-23T22:03:17.355Z,6.82
2017-12-23T22:05:46.595Z,9.30
2017-12-23T22:08:15.828Z,5.50
2017-12-23T22:10:45.116Z,8.02
2017-12-23T22:13:14.833Z,9.27
2017-12-23T22:15:44.076Z,5.80
2017-12-23T22:18:13.346Z,6.43
2017-12-23T22:20:42.578Z,5.47
2017-12-23T22:23:11.843Z,5.07
2017-12-23T22:25:41.102Z,5.70
2017-12-23T22:28:10.355Z,7.20
2017-12-23T22:30:39.610Z,4.45
2017-12-23T22:33:08.845Z,4.70
2017-12-23T22:35:38.139Z,4.32
2017-12-23T22:38:07.393Z,3.50
2017-12-23T22:40:36.626Z,3.87
2017-12-23T22:43:05.889Z,5.20
2017-12-23T22:45:35.132Z,5.32
2017-12-23T22:48:04.422Z,4.62
2017-12-23T22:50:33.680Z,5.00
2017-12-23T22:53:02.926Z,3.80
2017-12-23T22:55:32.198Z,3.70
2017-12-23T22:58:02.199Z,3.83
2017-12-23T23:00:31.448Z,3.37
2017-12-23T23:03:00.715Z,3.80
2017-12-23T23:05:29.940Z,3.78
2017-12-23T23:07:59.223Z,3.60
2017-12-23T23:10:28.462Z,3.17
2017-12-23T23:12:57.724Z,3.45
2017-12-23T23:15:27.740Z,2.80
2017-12-23T23:17:57.012Z,4.72
2017-12-23T23:20:26.252Z,3.60
2017-12-23T23:22:55.527Z,4.12
2017-12-23T23:25:25.563Z,3.35
2017-12-23T23:27:54.847Z,2.90
2017-12-23T23:30:24.081Z,3.20
2017-12-23T23:32:53.330Z,3.80
2017-12-23T23:35:22.582Z,3.17
2017-12-23T23:37:51.840Z,3.33
2017-12-23T23:40:21.862Z,3.00
2017-12-23T23:42:51.895Z,3.42
2017-12-23T23:45:21.147Z,2.60
2017-12-23T23:47:50.389Z,2.72
2017-12-23T23:50:19.659Z,2.95
2017-12-23T23:52:48.884Z,3.08
2017-12-23T23:55:18.896Z,4.65
2017-12-23T23:57:48.917Z,2.87
